sensor_id;sensor_type;location;lat;lon;timestamp;pressure;altitude;pressure_sealevel;temperature;humidity
48606;BME280;8482;54.396;18.590;2022-12-29T15:17:25;100217.25;;;8.57;89.22
48606;BME280;8482;54.396;18.590;2022-12-29T15:19:51;100211.25;;;8.55;90.78
48606;BME280;8482;54.396;18.590;2022-12-29T15:22:17;100218.94;;;8.58;91.82
48606;BME280;8482;54.396;18.590;2022-12-29T15:24:44;100222.31;;;8.60;92.04
48606;BME280;8482;54.396;18.590;2022-12-29T15:27:16;100224.69;;;8.63;91.59
48606;BME280;8482;54.396;18.590;2022-12-29T15:29:45;100220.25;;;8.64;91.80
48606;BME280;8482;54.396;18.590;2022-12-29T15:32:38;100232.13;;;8.69;91.38
48606;BME280;8482;54.396;18.590;2022-12-29T15:35:34;100225.75;;;8.72;90.99
48606;BME280;8482;54.396;18.590;2022-12-29T15:38:13;100217.59;;;8.75;90.61
48606;BME280;8482;54.396;18.590;2022-12-29T15:40:39;100220.09;;;8.77;90.31
48606;BME280;8482;54.396;18.590;2022-12-29T15:43:11;100228.88;;;8.77;89.68
48606;BME280;8482;54.396;18.590;2022-12-29T15:45:40;100228.88;;;8.77;89.64
48606;BME280;8482;54.396;18.590;2022-12-29T15:48:17;100240.28;;;8.78;89.09
48606;BME280;8482;54.396;18.590;2022-12-29T15:50:44;100239.91;;;8.82;88.62
48606;BME280;8482;54.396;18.590;2022-12-29T15:53:29;100227.66;;;8.81;88.72
48606;BME280;8482;54.396;18.590;2022-12-29T15:56:08;100232.84;;;8.83;88.44
48606;BME280;8482;54.396;18.590;2022-12-29T15:58:50;100232.69;;;8.84;88.53
48606;BME280;8482;54.396;18.590;2022-12-29T16:01:32;100231.88;;;8.84;88.03
48606;BME280;8482;54.396;18.590;2022-12-29T16:04:08;100227.41;;;8.84;87.63
48606;BME280;8482;54.396;18.590;2022-12-29T16:06:45;100220.19;;;8.86;87.56
48606;BME280;8482;54.396;18.590;2022-12-29T16:09:42;100214.91;;;8.86;87.54
48606;BME280;8482;54.396;18.590;2022-12-29T16:12:21;100210.44;;;8.87;87.11
48606;BME280;8482;54.396;18.590;2022-12-29T16:14:59;100223.44;;;8.90;87.34
48606;BME280;8482;54.396;18.590;2022-12-29T16:17:32;100215.41;;;8.92;87.09
48606;BME280;8482;54.396;18.590;2022-12-29T16:20:25;100219.72;;;8.93;86.73
48606;BME280;8482;54.396;18.590;2022-12-29T16:22:59;100213.44;;;8.94;86.44
48606;BME280;8482;54.396;18.590;2022-12-29T16:25:30;100214.16;;;8.96;86.01
48606;BME280;8482;54.396;18.590;2022-12-29T16:27:59;100217.53;;;8.98;85.98
48606;BME280;8482;54.396;18.590;2022-12-29T16:30:32;100212.00;;;9.01;85.96
48606;BME280;8482;54.396;18.590;2022-12-29T16:33:04;100209.13;;;9.04;85.72
48606;BME280;8482;54.396;18.590;2022-12-29T16:38:15;100213.06;;;9.10;84.89
48606;BME280;8482;54.396;18.590;2022-12-29T16:41:02;100218.22;;;9.11;84.85
48606;BME280;8482;54.396;18.590;2022-12-29T16:43:37;100220.63;;;9.14;84.32
48606;BME280;8482;54.396;18.590;2022-12-29T16:46:29;100237.06;;;9.18;84.35
48606;BME280;8482;54.396;18.590;2022-12-29T16:48:57;100251.16;;;9.18;84.01
48606;BME280;8482;54.396;18.590;2022-12-29T16:51:35;100239.47;;;9.21;83.56
48606;BME280;8482;54.396;18.590;2022-12-29T16:54:02;100250.78;;;9.23;83.69
48606;BME280;8482;54.396;18.590;2022-12-29T16:56:34;100252.47;;;9.24;83.47
48606;BME280;8482;54.396;18.590;2022-12-29T16:59:25;100261.81;;;9.28;82.87
48606;BME280;8482;54.396;18.590;2022-12-29T17:01:55;100260.84;;;9.29;82.96
48606;BME280;8482;54.396;18.590;2022-12-29T17:04:22;100243.06;;;9.31;82.63
48606;BME280;8482;54.396;18.590;2022-12-29T17:06:48;100266.72;;;9.33;82.34
48606;BME280;8482;54.396;18.590;2022-12-29T17:09:26;100261.19;;;9.36;81.74
48606;BME280;8482;54.396;18.590;2022-12-29T17:11:55;100289.25;;;9.39;81.65
48606;BME280;8482;54.396;18.590;2022-12-29T17:17:41;100266.00;;;9.42;80.78
48606;BME280;8482;54.396;18.590;2022-12-29T17:20:27;100240.75;;;9.38;80.89
48606;BME280;8482;54.396;18.590;2022-12-29T17:22:54;100253.59;;;9.43;80.74
48606;BME280;8482;54.396;18.590;2022-12-29T17:30:38;100224.22;;;9.46;81.26
48606;BME280;8482;54.396;18.590;2022-12-29T17:33:12;100236.38;;;9.48;81.45
48606;BME280;8482;54.396;18.590;2022-12-29T17:35:39;100239.00;;;9.48;82.06
48606;BME280;8482;54.396;18.590;2022-12-29T17:38:27;100235.66;;;9.46;82.48
48606;BME280;8482;54.396;18.590;2022-12-29T17:40:53;100241.06;;;9.45;82.99
48606;BME280;8482;54.396;18.590;2022-12-29T17:43:20;100233.28;;;9.43;83.41
48606;BME280;8482;54.396;18.590;2022-12-29T17:45:54;100242.03;;;9.44;83.77
48606;BME280;8482;54.396;18.590;2022-12-29T17:48:21;100238.69;;;9.42;84.16
48606;BME280;8482;54.396;18.590;2022-12-29T17:50:50;100248.44;;;9.41;84.19
48606;BME280;8482;54.396;18.590;2022-12-29T17:53:22;100238.94;;;9.39;84.35
48606;BME280;8482;54.396;18.590;2022-12-29T17:55:49;100251.56;;;9.35;84.62
48606;BME280;8482;54.396;18.590;2022-12-29T17:58:17;100251.56;;;9.35;84.59
48606;BME280;8482;54.396;18.590;2022-12-29T18:00:51;100259.06;;;9.30;84.61
48606;BME280;8482;54.396;18.590;2022-12-29T18:03:25;100262.78;;;9.27;84.79
48606;BME280;8482;54.396;18.590;2022-12-29T18:05:52;100258.47;;;9.26;84.79
48606;BME280;8482;54.396;18.590;2022-12-29T18:08:18;100267.63;;;9.22;84.81
48606;BME280;8482;54.396;18.590;2022-12-29T18:10:45;100270.28;;;9.22;84.87
48606;BME280;8482;54.396;18.590;2022-12-29T18:13:29;100265.38;;;9.17;84.86
48606;BME280;8482;54.396;18.590;2022-12-29T18:15:56;100270.53;;;9.19;85.36
48606;BME280;8482;54.396;18.590;2022-12-29T18:18:26;100269.69;;;9.18;85.18
48606;BME280;8482;54.396;18.590;2022-12-29T18:20:55;100287.34;;;9.18;85.22
48606;BME280;8482;54.396;18.590;2022-12-29T18:23:29;100294.47;;;9.17;85.19
48606;BME280;8482;54.396;18.590;2022-12-29T18:26:05;100288.47;;;9.15;85.16
48606;BME280;8482;54.396;18.590;2022-12-29T18:28:35;100286.78;;;9.14;85.31
48606;BME280;8482;54.396;18.590;2022-12-29T18:31:01;100287.00;;;9.11;85.14
48606;BME280;8482;54.396;18.590;2022-12-29T18:33:28;100298.56;;;9.10;85.52
48606;BME280;8482;54.396;18.590;2022-12-29T18:36:04;100305.78;;;9.08;85.59
48606;BME280;8482;54.396;18.590;2022-12-29T18:38:30;100296.16;;;9.07;85.59
48606;BME280;8482;54.396;18.590;2022-12-29T18:40:58;100297.00;;;9.08;85.86
48606;BME280;8482;54.396;18.590;2022-12-29T18:43:24;100291.84;;;9.06;85.61
48606;BME280;8482;54.396;18.590;2022-12-29T18:45:50;100300.75;;;9.05;85.78
48606;BME280;8482;54.396;18.590;2022-12-29T18:48:18;100313.72;;;9.08;85.89
48606;BME280;8482;54.396;18.590;2022-12-29T18:50:47;100312.03;;;9.07;85.66
48606;BME280;8482;54.396;18.590;2022-12-29T18:53:20;100312.88;;;9.08;85.93
48606;BME280;8482;54.396;18.590;2022-12-29T18:55:46;100306.63;;;9.09;85.76
48606;BME280;8482;54.396;18.590;2022-12-29T18:58:12;100313.59;;;9.10;85.91
48606;BME280;8482;54.396;18.590;2022-12-29T19:00:38;100307.59;;;9.08;85.89
48606;BME280;8482;54.396;18.590;2022-12-29T19:03:04;100308.41;;;9.08;85.82
48606;BME280;8482;54.396;18.590;2022-12-29T19:05:37;100310.22;;;9.08;85.52
48606;BME280;8482;54.396;18.590;2022-12-29T19:08:05;100317.31;;;9.07;85.95
48606;BME280;8482;54.396;18.590;2022-12-29T19:10:32;100318.31;;;9.06;85.59
48606;BME280;8482;54.396;18.590;2022-12-29T19:12:59;100321.19;;;9.03;85.62
48606;BME280;8482;54.396;18.590;2022-12-29T19:15:32;100305.56;;;9.00;85.77
48606;BME280;8482;54.396;18.590;2022-12-29T19:18:01;100310.84;;;9.00;85.60
48606;BME280;8482;54.396;18.590;2022-12-29T19:20:35;100321.44;;;9.00;85.56
48606;BME280;8482;54.396;18.590;2022-12-29T19:23:05;100318.06;;;8.98;85.82
48606;BME280;8482;54.396;18.590;2022-12-29T19:25:32;100309.28;;;8.97;85.90
48606;BME280;8482;54.396;18.590;2022-12-29T19:27:58;100308.44;;;8.97;85.42
48606;BME280;8482;54.396;18.590;2022-12-29T19:30:26;100312.75;;;8.98;85.57
48606;BME280;8482;54.396;18.590;2022-12-29T19:32:55;100301.47;;;8.96;85.18
48606;BME280;8482;54.396;18.590;2022-12-29T19:35:27;100300.63;;;8.95;85.32
48606;BME280;8482;54.396;18.590;2022-12-29T19:37:54;100300.72;;;8.94;85.45
48606;BME280;8482;54.396;18.590;2022-12-29T19:40:23;100304.47;;;8.91;85.22
48606;BME280;8482;54.396;18.590;2022-12-29T19:42:49;100300.16;;;8.90;85.26
48606;BME280;8482;54.396;18.590;2022-12-29T19:45:17;100299.31;;;8.89;85.01
48606;BME280;8482;54.396;18.590;2022-12-29T19:47:43;100304.84;;;8.86;84.91
48606;BME280;8482;54.396;18.590;2022-12-29T19:50:13;100309.16;;;8.87;84.94
48606;BME280;8482;54.396;18.590;2022-12-29T19:52:40;100307.34;;;8.88;84.60
48606;BME280;8482;54.396;18.590;2022-12-29T19:55:07;100314.47;;;8.87;84.63
48606;BME280;8482;54.396;18.590;2022-12-29T19:57:33;100320.59;;;8.88;85.03
48606;BME280;8482;54.396;18.590;2022-12-29T20:00:00;100325.03;;;8.87;84.61
48606;BME280;8482;54.396;18.590;2022-12-29T20:02:29;100329.59;;;8.85;84.17
48606;BME280;8482;54.396;18.590;2022-12-29T20:04:56;100334.91;;;8.85;84.66
48606;BME280;8482;54.396;18.590;2022-12-29T20:07:24;100331.28;;;8.86;84.34
48606;BME280;8482;54.396;18.590;2022-12-29T20:09:50;100340.06;;;8.87;84.29
48606;BME280;8482;54.396;18.590;2022-12-29T20:12:17;100346.19;;;8.87;84.01
48606;BME280;8482;54.396;18.590;2022-12-29T20:14:44;100342.69;;;8.87;83.92
48606;BME280;8482;54.396;18.590;2022-12-29T20:17:14;100336.59;;;8.86;83.90
48606;BME280;8482;54.396;18.590;2022-12-29T20:19:42;100334.06;;;8.85;84.05
48606;BME280;8482;54.396;18.590;2022-12-29T20:22:10;100351.84;;;8.83;83.70
48606;BME280;8482;54.396;18.590;2022-12-29T20:24:37;100346.56;;;8.83;83.32
48606;BME280;8482;54.396;18.590;2022-12-29T20:27:10;100339.69;;;8.80;83.53
48606;BME280;8482;54.396;18.590;2022-12-29T20:29:40;100351.00;;;8.82;83.53
48606;BME280;8482;54.396;18.590;2022-12-29T20:32:12;100346.66;;;8.81;83.77
48606;BME280;8482;54.396;18.590;2022-12-29T20:34:40;100355.47;;;8.82;83.94
48606;BME280;8482;54.396;18.590;2022-12-29T20:37:07;100361.84;;;8.79;83.81
48606;BME280;8482;54.396;18.590;2022-12-29T20:39:35;100365.31;;;8.80;83.85
48606;BME280;8482;54.396;18.590;2022-12-29T20:42:02;100366.03;;;8.82;83.92
48606;BME280;8482;54.396;18.590;2022-12-29T20:44:30;100351.84;;;8.83;84.04
48606;BME280;8482;54.396;18.590;2022-12-29T20:46:57;100360.53;;;8.85;84.04
48606;BME280;8482;54.396;18.590;2022-12-29T20:49:24;100356.19;;;8.84;83.57
48606;BME280;8482;54.396;18.590;2022-12-29T20:51:51;100353.53;;;8.84;83.44
48606;BME280;8482;54.396;18.590;2022-12-29T20:54:18;100354.50;;;8.83;83.46
48606;BME280;8482;54.396;18.590;2022-12-29T20:56:44;100365.91;;;8.83;83.37
48606;BME280;8482;54.396;18.590;2022-12-29T20:59:12;100359.66;;;8.84;83.63
48606;BME280;8482;54.396;18.590;2022-12-29T21:01:39;100358.84;;;8.84;83.34
48606;BME280;8482;54.396;18.590;2022-12-29T21:04:06;100364.94;;;8.84;83.48
48606;BME280;8482;54.396;18.590;2022-12-29T21:06:33;100365.91;;;8.83;83.08
48606;BME280;8482;54.396;18.590;2022-12-29T21:08:59;100372.16;;;8.82;82.88
48606;BME280;8482;54.396;18.590;2022-12-29T21:11:26;100383.69;;;8.81;82.60
48606;BME280;8482;54.396;18.590;2022-12-29T21:13:52;100374.81;;;8.82;82.59
48606;BME280;8482;54.396;18.590;2022-12-29T21:16:19;100376.63;;;8.82;83.37
48606;BME280;8482;54.396;18.590;2022-12-29T21:18:47;100383.47;;;8.84;83.35
48606;BME280;8482;54.396;18.590;2022-12-29T21:21:22;100380.81;;;8.84;82.67
48606;BME280;8482;54.396;18.590;2022-12-29T21:23:49;100388.75;;;8.84;83.36
48606;BME280;8482;54.396;18.590;2022-12-29T21:26:20;100390.44;;;8.85;83.09
48606;BME280;8482;54.396;18.590;2022-12-29T21:28:47;100387.78;;;8.85;82.80
48606;BME280;8482;54.396;18.590;2022-12-29T21:33:49;100388.03;;;8.82;82.50
48606;BME280;8482;54.396;18.590;2022-12-29T21:36:15;100389.47;;;8.86;82.58
48606;BME280;8482;54.396;18.590;2022-12-29T21:38:41;100410.50;;;8.88;82.60
48606;BME280;8482;54.396;18.590;2022-12-29T21:41:11;100404.25;;;8.89;82.33
48606;BME280;8482;54.396;18.590;2022-12-29T21:43:37;100405.13;;;8.89;82.04
48606;BME280;8482;54.396;18.590;2022-12-29T21:46:04;100399.84;;;8.89;82.18
48606;BME280;8482;54.396;18.590;2022-12-29T21:48:32;100415.47;;;8.93;81.99
48606;BME280;8482;54.396;18.590;2022-12-29T21:51:11;100415.34;;;8.94;81.88
48606;BME280;8482;54.396;18.590;2022-12-29T21:54:00;100409.91;;;8.96;81.99
48606;BME280;8482;54.396;18.590;2022-12-29T21:56:46;100413.44;;;8.96;81.76
48606;BME280;8482;54.396;18.590;2022-12-29T21:59:14;100408.13;;;8.96;81.70
48606;BME280;8482;54.396;18.590;2022-12-29T22:02:01;100415.94;;;8.98;81.08
48606;BME280;8482;54.396;18.590;2022-12-29T22:04:47;100410.66;;;8.98;81.07
48606;BME280;8482;54.396;18.590;2022-12-29T22:07:31;100416.66;;;9.00;81.27
48606;BME280;8482;54.396;18.590;2022-12-29T22:10:16;100418.34;;;9.01;81.23
48606;BME280;8482;54.396;18.590;2022-12-29T22:13:01;100418.47;;;8.99;81.09
48606;BME280;8482;54.396;18.590;2022-12-29T22:15:34;100429.44;;;9.06;80.86
48606;BME280;8482;54.396;18.590;2022-12-29T22:18:03;100433.72;;;9.07;81.00
48606;BME280;8482;54.396;18.590;2022-12-29T22:20:32;100427.25;;;9.11;80.73
48606;BME280;8482;54.396;18.590;2022-12-29T22:22:59;100425.47;;;9.12;80.82
48606;BME280;8482;54.396;18.590;2022-12-29T22:25:27;100430.50;;;9.15;80.70
48606;BME280;8482;54.396;18.590;2022-12-29T22:27:53;100445.31;;;9.17;80.49
48606;BME280;8482;54.396;18.590;2022-12-29T22:30:19;100437.25;;;9.19;80.06
48606;BME280;8482;54.396;18.590;2022-12-29T22:32:45;100450.34;;;9.20;80.05
48606;BME280;8482;54.396;18.590;2022-12-29T22:35:12;100437.00;;;9.22;80.10
48606;BME280;8482;54.396;18.590;2022-12-29T22:37:40;100460.69;;;9.24;80.50
48606;BME280;8482;54.396;18.590;2022-12-29T22:40:08;100444.72;;;9.25;79.96
48606;BME280;8482;54.396;18.590;2022-12-29T22:42:36;100449.88;;;9.27;80.19
48606;BME280;8482;54.396;18.590;2022-12-29T22:45:02;100450.84;;;9.26;79.77
48606;BME280;8482;54.396;18.590;2022-12-29T22:47:28;100449.88;;;9.27;79.75
48606;BME280;8482;54.396;18.590;2022-12-29T22:49:53;100448.19;;;9.26;79.66
48606;BME280;8482;54.396;18.590;2022-12-29T22:52:19;100438.56;;;9.25;79.54
48606;BME280;8482;54.396;18.590;2022-12-29T22:54:45;100435.19;;;9.23;80.08
48606;BME280;8482;54.396;18.590;2022-12-29T22:57:11;100450.25;;;9.22;79.61
48606;BME280;8482;54.396;18.590;2022-12-29T22:59:37;100452.03;;;9.22;79.45
48606;BME280;8482;54.396;18.590;2022-12-29T23:02:04;100447.69;;;9.20;79.61
48606;BME280;8482;54.396;18.590;2022-12-29T23:04:30;100453.25;;;9.17;79.51
48606;BME280;8482;54.396;18.590;2022-12-29T23:06:56;100454.22;;;9.16;79.33
48606;BME280;8482;54.396;18.590;2022-12-29T23:09:22;100459.50;;;9.16;79.00
48606;BME280;8482;54.396;18.590;2022-12-29T23:11:49;100457.91;;;9.14;78.82
48606;BME280;8482;54.396;18.590;2022-12-29T23:14:15;100451.06;;;9.11;78.57
48606;BME280;8482;54.396;18.590;2022-12-29T23:16:43;100450.25;;;9.11;78.59
48606;BME280;8482;54.396;18.590;2022-12-29T23:19:11;100451.28;;;9.08;78.68
